Elon, Iowa
Current Conditions -  °F | °C
As of 3:35 AM on Thursday 23 Oct 2014 (Local Time) from KPDC Reporting Station
Overcast Overcast  
Wind Chill: 47°   Ceiling: 4100
Heat Index: 49°   Visibility: 10mi
Dew Point: 38°   Wind: 6mph
Humidity: 67%   Direction: 110°ESE
Pressure: 30.13"   Gusts: NA
Location:  43.2691°N, 91.2611°W
Report Text: KPDC 230835Z AUTO 11005KT 10SM OVC041 10/04 A3013 RMK AO2 T00950036
Loading
Personal Weather Stations






























Interactive Weather Map
Tropical Storm Tracking
New forecast layout! Learn more

10-Day Weather Forecast

Advertisements
Track Severe Weather on mobile